Terminal Aerodrome Forecast
Issued by NWS Wilmington, OH

Current Version | Previous Version | Text Only | Print | Product List | Glossary Off
Versions: 1 2 3 4 5 6 7 8 9 10 11 12 13 14 15 16 17 18 19 20 21 22 23 24

478
FTUS41 KILN 200858 AAD
TAFCVG
TAF AMD
KCVG 200858Z 2009/2112 00000KT 1/4SM FG VV001
     FM201300 00000KT 1SM BR SCT005 BKN008
     FM201400 VRB04KT 4SM BR BKN012
     FM201500 14006KT P6SM SCT015
     FM201800 14008KT P6SM SCT200
     FM210100 15005KT P6SM BKN200=

USA.gov is the U.S. government's official web portal to all federal, state and local government web resources and services.